This is the latest recevied weather packets stored in our database for station/object OM1ATS-6. If no packets are shown the sender has not sent any weather packets the latest 1 day(s).
| Time | Temp. | Humidity | Pressure | Rain* | Wind** | Luminosity | Snow |
|---|---|---|---|---|---|---|---|
| 1778074931 | 24.44° C | 42% | 1009.4 hPa | - | - | - | - |
| 1778074030 | 25° C | 41% | 1009.3 hPa | - | - | - | - |
| 1778073131 | 25.56° C | 40% | 1009.9 hPa | - | - | - | - |
| 1778072230 | 26.11° C | 39% | 1010.5 hPa | - | - | - | - |
| 1778071330 | 26.11° C | 42% | 1010.5 hPa | - | - | - | - |
| 1778070730 | 26.11° C | 41% | 1010.7 hPa | - | - | - | - |
| 1778070429 | 26.11° C | 43% | 1010.7 hPa | - | - | - | - |
| 1778069829 | 25.56° C | 43% | 1010.3 hPa | - | - | - | - |
| 1778068930 | 25.56° C | 43% | 1010.3 hPa | - | - | - | - |
| 1778068330 | 25.56° C | 43% | 1010 hPa | - | - | - | - |
| 1778068030 | 25.56° C | 43% | 1010 hPa | - | - | - | - |
| 1778066830 | 25° C | 46% | 1010.2 hPa | - | - | - | - |
| 1778066229 | 25° C | 47% | 1010.7 hPa | - | - | - | - |
| 1778064129 | 23.89° C | 51% | 1010.7 hPa | - | - | - | - |
| 1778062930 | 23.89° C | 53% | 1011 hPa | - | - | - | - |
| 1778062330 | 23.33° C | 54% | 1011 hPa | - | - | - | - |
| 1778061730 | 22.78° C | 54% | 1011 hPa | - | - | - | - |
| 1778061130 | 22.78° C | 54% | 1011.2 hPa | - | - | - | - |
| 1778060530 | 22.78° C | 55% | 1011.2 hPa | - | - | - | - |
| 1778059330 | 22.78° C | 57% | 1011.5 hPa | - | - | - | - |
| 1778059029 | 22.78° C | 57% | 1011.2 hPa | - | - | - | - |
| 1778058130 | 22.22° C | 58% | 1011.2 hPa | - | - | - | - |
| 1778057530 | 22.22° C | 59% | 1011.2 hPa | - | - | - | - |
| 1778057230 | 21.67° C | 60% | 1011.2 hPa | - | - | - | - |
| 1778056630 | 21.67° C | 61% | 1011.4 hPa | - | - | - | - |
* Rain since midnight (hover to see other rain measurements)
** Current wind speed in m/s (hover to see current wind gust speed)